createdAt,value
2023-05-07T00:01:12.107Z,99503.72
2023-05-07T00:03:44.027Z,99508.53
2023-05-07T00:06:16.051Z,99505.75
2023-05-07T00:08:47.789Z,99504.47
2023-05-07T00:11:19.571Z,99499.31
2023-05-07T00:13:51.292Z,99504.47
2023-05-07T00:16:23.289Z,99505.41
2023-05-07T00:18:55.182Z,99504.19
2023-05-07T00:21:29.908Z,99511.97
2023-05-07T00:24:01.488Z,99505.34
2023-05-07T00:26:33.253Z,99499.59
2023-05-07T00:29:04.950Z,99502.22
2023-05-07T00:31:36.795Z,99500.53
2023-05-07T00:34:10.017Z,99505.47
2023-05-07T00:36:41.796Z,99504.13
2023-05-07T00:39:13.517Z,99499.13
2023-05-07T00:41:45.285Z,99494.81
2023-05-07T00:44:16.997Z,99498.47
2023-05-07T00:46:51.043Z,99500.41
2023-05-07T00:49:29.861Z,99505.66
2023-05-07T00:52:01.849Z,99503.19
2023-05-07T00:54:35.406Z,99501.53
2023-05-07T00:57:07.642Z,99497.38
2023-05-07T00:59:41.222Z,99508.81
2023-05-07T01:02:13.441Z,99501.06
2023-05-07T01:04:45.173Z,99502.69
2023-05-07T01:07:17.451Z,99512.13
2023-05-07T01:09:52.216Z,99508.81
2023-05-07T01:12:25.277Z,99518.28
2023-05-07T01:14:57.805Z,99513.69
2023-05-07T01:17:30.150Z,99513.78
2023-05-07T01:20:02.308Z,99515.66
2023-05-07T01:22:38.998Z,99511.34
2023-05-07T01:25:12.018Z,99514.13
2023-05-07T01:27:48.223Z,99521.72
2023-05-07T01:30:22.021Z,99513.94
2023-05-07T01:33:02.869Z,99523.59
2023-05-07T01:35:48.336Z,99522.25
2023-05-07T01:38:22.414Z,99516.31
2023-05-07T01:40:54.491Z,99524.09
2023-05-07T01:43:26.429Z,99517.59
2023-05-07T01:46:00.068Z,99523.53
2023-05-07T01:48:32.154Z,99516.75
2023-05-07T01:51:05.481Z,99515.81
2023-05-07T01:53:38.310Z,99515.59
2023-05-07T01:56:10.239Z,99515.63
2023-05-07T01:58:48.003Z,99526.72
2023-05-07T02:01:19.779Z,99527.88
2023-05-07T02:03:52.752Z,99534.31
2023-05-07T02:06:28.864Z,99528.00
2023-05-07T02:09:06.319Z,99527.31
2023-05-07T02:11:38.114Z,99532.91
2023-05-07T02:14:11.455Z,99530.78
2023-05-07T02:16:43.256Z,99529.66
2023-05-07T02:19:18.696Z,99540.25
2023-05-07T02:21:52.558Z,99533.13
2023-05-07T02:24:24.304Z,99529.81
2023-05-07T02:26:56.224Z,99527.00
2023-05-07T02:29:28.039Z,99526.19
2023-05-07T02:31:59.807Z,99523.03
2023-05-07T02:34:31.701Z,99530.16
2023-05-07T02:37:03.550Z,99531.81
2023-05-07T02:39:35.527Z,99537.09
2023-05-07T02:42:07.332Z,99530.16
2023-05-07T02:44:39.330Z,99535.63
2023-05-07T02:47:14.060Z,99524.22
2023-05-07T02:49:47.379Z,99527.16
2023-05-07T02:52:19.171Z,99533.91
2023-05-07T02:54:50.910Z,99537.75
2023-05-07T02:57:22.761Z,99533.81
2023-05-07T02:59:57.874Z,99528.09
2023-05-07T03:02:29.749Z,99537.50
2023-05-07T03:05:04.755Z,99529.38
2023-05-07T03:07:37.568Z,99527.72
2023-05-07T03:10:09.786Z,99537.03
2023-05-07T03:12:41.644Z,99542.78
2023-05-07T03:15:16.179Z,99539.44
2023-05-07T03:17:48.029Z,99536.97
2023-05-07T03:20:19.902Z,99538.16
2023-05-07T03:22:51.717Z,99540.81
2023-05-07T03:25:26.308Z,99532.78
2023-05-07T03:27:57.892Z,99528.25
2023-05-07T03:30:34.560Z,99529.28
2023-05-07T03:33:06.464Z,99536.75
2023-05-07T03:35:38.366Z,99541.03
2023-05-07T03:38:10.458Z,99535.09
2023-05-07T03:40:43.727Z,99540.22
2023-05-07T03:43:15.819Z,99544.31
2023-05-07T03:45:52.711Z,99541.34
2023-05-07T03:48:29.186Z,99540.38
2023-05-07T03:51:03.193Z,99544.69
2023-05-07T03:53:38.003Z,99541.69
2023-05-07T03:56:11.775Z,99549.84
2023-05-07T03:58:46.072Z,99539.56
2023-05-07T04:01:18.086Z,99532.47
2023-05-07T04:03:50.673Z,99527.88
2023-05-07T04:06:25.256Z,99533.31
2023-05-07T04:08:57.025Z,99536.47
2023-05-07T04:11:28.828Z,99541.25
2023-05-07T04:14:00.972Z,99544.56
2023-05-07T04:16:32.890Z,99545.09
2023-05-07T04:19:04.853Z,99545.78
2023-05-07T04:21:37.432Z,99546.81
2023-05-07T04:24:12.340Z,99555.38
2023-05-07T04:26:47.122Z,99563.97
2023-05-07T04:29:20.054Z,99554.88
2023-05-07T04:31:52.010Z,99560.34
2023-05-07T04:34:23.802Z,99563.63
2023-05-07T04:36:59.972Z,99563.47
2023-05-07T04:39:31.765Z,99571.41
2023-05-07T04:42:04.137Z,99571.41
2023-05-07T04:44:39.277Z,99567.59
2023-05-07T04:47:11.393Z,99579.84
2023-05-07T04:49:43.312Z,99572.75
2023-05-07T04:52:18.711Z,99581.50
2023-05-07T04:54:51.651Z,99574.56
2023-05-07T04:57:23.624Z,99576.22
2023-05-07T04:59:55.584Z,99578.66
2023-05-07T05:02:27.538Z,99579.66
2023-05-07T05:05:00.194Z,99587.91
2023-05-07T05:07:32.495Z,99591.69
2023-05-07T05:10:06.751Z,99587.06
2023-05-07T05:12:41.281Z,99589.19
2023-05-07T05:15:14.017Z,99595.13
2023-05-07T05:17:46.241Z,99594.63
2023-05-07T05:20:19.570Z,99604.53
2023-05-07T05:22:52.790Z,99604.19
2023-05-07T05:25:24.579Z,99600.88
2023-05-07T05:27:57.584Z,99606.31
2023-05-07T05:30:29.662Z,99606.78
2023-05-07T05:33:04.603Z,99614.44
2023-05-07T05:35:36.860Z,99609.31
2023-05-07T05:38:11.090Z,99609.50
2023-05-07T05:40:43.906Z,99608.22
2023-05-07T05:43:18.870Z,99610.84
2023-05-07T05:45:50.591Z,99609.81
2023-05-07T05:48:22.830Z,99612.44
2023-05-07T05:50:55.152Z,99612.03
2023-05-07T05:53:27.019Z,99607.75
2023-05-07T05:56:00.172Z,99607.28
2023-05-07T05:58:32.317Z,99612.22
2023-05-07T06:01:07.565Z,99610.38
2023-05-07T06:03:41.758Z,99612.47
2023-05-07T06:06:18.477Z,99622.84
2023-05-07T06:08:51.296Z,99622.53
2023-05-07T06:11:27.861Z,99620.31
2023-05-07T06:14:00.387Z,99624.38
2023-05-07T06:16:33.884Z,99623.00
2023-05-07T06:19:06.349Z,99633.63
2023-05-07T06:21:38.153Z,99638.38
2023-05-07T06:24:10.055Z,99636.53
2023-05-07T06:26:45.178Z,99631.97
2023-05-07T06:29:18.372Z,99648.31
2023-05-07T06:31:51.122Z,99651.00
2023-05-07T06:34:22.966Z,99650.53
2023-05-07T06:36:54.890Z,99654.94
2023-05-07T06:39:38.476Z,99661.03
2023-05-07T06:42:12.799Z,99662.88
2023-05-07T06:44:47.556Z,99655.59
2023-05-07T06:47:21.785Z,99667.19
2023-05-07T06:49:57.571Z,99667.59
2023-05-07T06:52:36.462Z,99665.25
2023-05-07T06:55:12.458Z,99667.78
2023-05-07T06:57:44.453Z,99666.78
2023-05-07T07:00:16.750Z,99683.06
2023-05-07T07:02:55.866Z,99671.03
2023-05-07T07:05:31.007Z,99672.88
2023-05-07T07:08:03.812Z,99674.91
2023-05-07T07:10:37.967Z,99676.75
2023-05-07T07:13:10.433Z,99676.91
2023-05-07T07:15:42.599Z,99680.97
2023-05-07T07:18:14.729Z,99681.09
2023-05-07T07:20:47.501Z,99681.00
2023-05-07T07:23:19.451Z,99672.22
2023-05-07T07:25:51.267Z,99681.66
2023-05-07T07:28:23.344Z,99694.09
2023-05-07T07:30:55.113Z,99688.34
2023-05-07T07:33:28.379Z,99681.47
2023-05-07T07:36:00.500Z,99692.56
2023-05-07T07:38:32.372Z,99691.38
2023-05-07T07:41:04.462Z,99691.84
2023-05-07T07:43:36.644Z,99695.56
2023-05-07T07:46:09.179Z,99692.72
2023-05-07T07:48:40.993Z,99693.84
2023-05-07T07:51:14.226Z,99696.03
2023-05-07T07:53:45.986Z,99691.94
2023-05-07T07:56:17.858Z,99698.59
2023-05-07T07:58:50.869Z,99702.16
2023-05-07T08:01:22.851Z,99705.03
2023-05-07T08:03:55.256Z,99705.66
2023-05-07T08:06:27.874Z,99711.69
2023-05-07T08:09:00.505Z,99707.78
2023-05-07T08:11:33.089Z,99713.84
2023-05-07T08:14:05.173Z,99704.03
2023-05-07T08:16:37.423Z,99704.38
2023-05-07T08:19:09.323Z,99713.63
2023-05-07T08:21:41.740Z,99714.44
2023-05-07T08:24:16.186Z,99712.50
2023-05-07T08:26:48.092Z,99717.66
2023-05-07T08:29:20.862Z,99714.72
2023-05-07T08:31:52.778Z,99723.59
2023-05-07T08:34:24.578Z,99723.53
2023-05-07T08:36:58.688Z,99726.25
2023-05-07T08:39:30.891Z,99725.69
2023-05-07T08:42:05.750Z,99734.25
2023-05-07T08:44:41.223Z,99731.78
2023-05-07T08:47:13.305Z,99729.13
2023-05-07T08:49:46.221Z,99724.84
2023-05-07T08:52:21.025Z,99728.41
2023-05-07T08:54:53.521Z,99723.84
2023-05-07T08:57:25.761Z,99727.06
2023-05-07T08:59:58.675Z,99735.66
2023-05-07T09:02:30.578Z,99734.50
2023-05-07T09:05:05.009Z,99735.56
2023-05-07T09:07:37.277Z,99732.66
2023-05-07T09:10:11.682Z,99734.66
2023-05-07T09:12:48.042Z,99737.06
2023-05-07T09:15:21.539Z,99730.72
2023-05-07T09:17:53.519Z,99734.91
2023-05-07T09:20:25.670Z,99731.69
2023-05-07T09:22:58.067Z,99734.22
2023-05-07T09:25:32.934Z,99734.38
2023-05-07T09:28:11.207Z,99736.88
2023-05-07T09:30:43.031Z,99738.63
2023-05-07T09:33:17.192Z,99737.06
2023-05-07T09:35:53.325Z,99741.47
2023-05-07T09:38:28.844Z,99744.13
2023-05-07T09:41:05.097Z,99744.03
2023-05-07T09:43:42.222Z,99741.22
2023-05-07T09:46:17.859Z,99744.91
2023-05-07T09:49:02.488Z,99742.41
2023-05-07T09:51:52.800Z,99741.56
2023-05-07T09:54:31.799Z,99747.06
2023-05-07T09:57:04.956Z,99744.34
2023-05-07T09:59:38.749Z,99740.59
2023-05-07T10:02:16.140Z,99742.88
2023-05-07T10:04:54.345Z,99737.00
2023-05-07T10:07:31.709Z,99742.06
2023-05-07T10:10:10.199Z,99739.97
2023-05-07T10:12:46.620Z,99743.09
2023-05-07T10:15:25.778Z,99746.38
2023-05-07T10:18:02.047Z,99738.31
2023-05-07T10:20:37.473Z,99745.06
2023-05-07T10:23:14.545Z,99748.88
2023-05-07T10:25:49.773Z,99750.78
2023-05-07T10:28:29.264Z,99749.03
2023-05-07T10:31:27.779Z,99732.28
2023-05-07T10:34:02.893Z,99728.28
2023-05-07T10:36:38.278Z,99719.19
2023-05-07T10:39:11.529Z,99720.69
2023-05-07T10:41:44.691Z,99716.88
2023-05-07T10:44:45.986Z,99716.06
2023-05-07T10:47:24.092Z,99716.47
2023-05-07T10:50:06.088Z,99716.22
2023-05-07T10:52:41.386Z,99711.44
2023-05-07T10:55:19.833Z,99716.31
2023-05-07T10:58:31.962Z,99718.88
2023-05-07T11:01:56.346Z,99716.56
2023-05-07T11:04:42.652Z,99715.84
2023-05-07T11:07:31.688Z,99716.88
2023-05-07T11:10:11.344Z,99720.75
2023-05-07T11:13:03.381Z,99720.31
2023-05-07T11:15:48.584Z,99719.09
2023-05-07T11:18:51.171Z,99726.25
2023-05-07T11:21:44.199Z,99724.56
2023-05-07T11:24:48.095Z,99726.66
2023-05-07T11:27:24.712Z,99726.66
2023-05-07T11:29:57.586Z,99730.22
2023-05-07T11:32:32.069Z,99728.06
2023-05-07T11:35:05.060Z,99728.78
2023-05-07T11:37:37.120Z,99731.31
2023-05-07T11:40:12.003Z,99732.75
2023-05-07T11:42:44.536Z,99733.13
2023-05-07T11:45:30.119Z,99723.19
2023-05-07T11:48:06.597Z,99743.28
2023-05-07T11:50:54.645Z,99741.09
2023-05-07T11:53:29.666Z,99745.38
2023-05-07T11:56:11.091Z,99735.47
2023-05-07T11:58:44.366Z,99735.59
2023-05-07T12:01:17.482Z,99730.41
2023-05-07T12:03:49.558Z,99730.63
2023-05-07T12:06:21.645Z,99728.31
2023-05-07T12:08:54.618Z,99730.38
2023-05-07T12:11:27.110Z,99734.63
2023-05-07T12:13:59.767Z,99734.69
2023-05-07T12:16:33.691Z,99741.53
2023-05-07T12:19:07.518Z,99737.06
2023-05-07T12:21:40.729Z,99749.22
2023-05-07T12:24:12.652Z,99742.31
2023-05-07T12:26:46.268Z,99741.25
2023-05-07T12:29:18.229Z,99739.41
2023-05-07T12:31:51.479Z,99749.75
2023-05-07T12:34:23.935Z,99754.09
2023-05-07T12:36:56.166Z,99746.34
2023-05-07T12:39:28.184Z,99747.25
2023-05-07T12:42:01.214Z,99745.25
2023-05-07T12:44:35.143Z,99735.63
2023-05-07T12:47:06.909Z,99737.88
2023-05-07T12:49:39.862Z,99745.47
2023-05-07T12:52:12.957Z,99742.41
2023-05-07T12:54:45.576Z,99740.91
2023-05-07T12:57:21.859Z,99737.88
2023-05-07T13:00:02.538Z,99732.91
2023-05-07T13:02:35.868Z,99734.94
2023-05-07T13:05:09.380Z,99742.75
2023-05-07T13:07:42.175Z,99738.25
2023-05-07T13:10:14.046Z,99736.78
2023-05-07T13:12:47.990Z,99738.78
2023-05-07T13:15:20.035Z,99740.56
2023-05-07T13:17:51.901Z,99731.91
2023-05-07T13:20:24.078Z,99727.47
2023-05-07T13:22:55.966Z,99724.88
2023-05-07T13:25:30.757Z,99725.13
2023-05-07T13:28:10.126Z,99731.50
2023-05-07T13:30:43.853Z,99728.81
2023-05-07T13:33:17.038Z,99724.09
2023-05-07T13:35:49.036Z,99725.94
2023-05-07T13:38:21.996Z,99737.84
2023-05-07T13:40:55.013Z,99737.63
2023-05-07T13:43:26.862Z,99731.03
2023-05-07T13:45:58.799Z,99738.84
2023-05-07T13:48:30.858Z,99733.53
2023-05-07T13:51:04.121Z,99715.91
2023-05-07T13:53:36.530Z,99717.75
2023-05-07T13:56:08.534Z,99719.81
2023-05-07T13:58:52.050Z,99717.78
2023-05-07T14:01:26.035Z,99719.22
2023-05-07T14:04:07.017Z,99715.09
2023-05-07T14:06:38.966Z,99718.00
2023-05-07T14:09:13.258Z,99716.94
2023-05-07T14:11:52.311Z,99714.06
2023-05-07T14:14:24.192Z,99715.09
2023-05-07T14:16:56.208Z,99714.69
2023-05-07T14:19:28.087Z,99720.81
2023-05-07T14:21:59.943Z,99720.88
2023-05-07T14:24:38.785Z,99733.34
2023-05-07T14:27:10.934Z,99723.72
2023-05-07T14:29:46.533Z,99732.31
2023-05-07T14:32:19.385Z,99720.75
2023-05-07T14:34:51.408Z,99730.28
2023-05-07T14:37:26.387Z,99739.38
2023-05-07T14:39:58.149Z,99729.88
2023-05-07T14:42:30.884Z,99729.91
2023-05-07T14:45:06.579Z,99731.41
2023-05-07T14:47:38.523Z,99737.19
2023-05-07T14:50:10.538Z,99732.06
2023-05-07T14:52:42.551Z,99735.31
2023-05-07T14:55:14.475Z,99731.16
2023-05-07T14:57:46.497Z,99732.97
2023-05-07T15:00:18.595Z,99740.19
2023-05-07T15:02:50.396Z,99733.94
2023-05-07T15:05:22.246Z,99741.69
2023-05-07T15:07:57.598Z,99727.19
2023-05-07T15:10:29.928Z,99727.31
2023-05-07T15:13:01.811Z,99730.97
2023-05-07T15:15:33.714Z,99735.53
2023-05-07T15:18:05.725Z,99739.38
2023-05-07T15:20:37.912Z,99726.88
2023-05-07T15:23:14.355Z,99733.22
2023-05-07T15:25:52.157Z,99741.97
2023-05-07T15:28:25.652Z,99741.88
2023-05-07T15:31:00.714Z,99731.34
2023-05-07T15:33:32.562Z,99732.81
2023-05-07T15:36:06.072Z,99750.19
2023-05-07T15:38:38.218Z,99734.00
2023-05-07T15:41:10.462Z,99755.28
2023-05-07T15:43:52.623Z,99743.88
2023-05-07T15:46:26.005Z,99741.09
2023-05-07T15:49:02.709Z,99745.00
2023-05-07T15:51:36.589Z,99752.44
2023-05-07T15:54:11.403Z,99755.88
2023-05-07T15:56:43.128Z,99751.47
2023-05-07T15:59:16.618Z,99756.00
2023-05-07T16:01:48.534Z,99760.41
2023-05-07T16:04:20.458Z,99766.13
2023-05-07T16:06:52.322Z,99758.31
2023-05-07T16:09:25.868Z,99761.81
2023-05-07T16:11:57.705Z,99758.44
2023-05-07T16:14:29.614Z,99748.25
2023-05-07T16:17:01.829Z,99755.66
2023-05-07T16:19:33.831Z,99752.34
2023-05-07T16:22:05.568Z,99756.28
2023-05-07T16:24:39.944Z,99755.81
2023-05-07T16:27:12.071Z,99754.91
2023-05-07T16:29:43.845Z,99762.59
2023-05-07T16:32:15.554Z,99764.25
2023-05-07T16:34:47.433Z,99770.06
2023-05-07T16:37:19.160Z,99762.38
2023-05-07T16:39:51.078Z,99767.47
2023-05-07T16:42:22.816Z,99774.03
2023-05-07T16:44:54.790Z,99784.00
2023-05-07T16:47:27.222Z,99793.31
2023-05-07T16:50:00.818Z,99788.72
2023-05-07T16:52:34.467Z,99778.16
2023-05-07T16:55:08.045Z,99793.44
2023-05-07T16:57:40.067Z,99792.66
2023-05-07T17:00:12.968Z,99789.03
2023-05-07T17:02:45.807Z,99796.06
2023-05-07T17:05:18.981Z,99791.78
2023-05-07T17:07:51.640Z,99774.22
2023-05-07T17:10:25.651Z,99785.81
2023-05-07T17:13:00.383Z,99778.66
2023-05-07T17:15:32.101Z,99796.94
2023-05-07T17:18:03.966Z,99795.81
2023-05-07T17:20:35.792Z,99804.16
2023-05-07T17:23:07.620Z,99806.84
2023-05-07T17:25:39.487Z,99815.63
2023-05-07T17:28:12.384Z,99819.63
2023-05-07T17:30:49.625Z,99814.38
2023-05-07T17:33:24.251Z,99818.69
2023-05-07T17:35:56.069Z,99831.13
2023-05-07T17:38:27.875Z,99845.25
2023-05-07T17:40:59.866Z,99844.13
2023-05-07T17:43:31.649Z,99848.56
2023-05-07T17:46:03.495Z,99864.13
2023-05-07T17:48:35.648Z,99862.97
2023-05-07T17:51:07.591Z,99872.41
2023-05-07T17:53:40.183Z,99872.50
2023-05-07T17:56:12.458Z,99870.00
2023-05-07T17:58:58.091Z,99871.00
2023-05-07T18:01:33.561Z,99874.09
2023-05-07T18:04:05.501Z,99878.91
2023-05-07T18:06:37.527Z,99878.88
2023-05-07T18:09:09.649Z,99889.78
2023-05-07T18:11:41.645Z,99893.41
2023-05-07T18:14:14.277Z,99889.25
2023-05-07T18:16:46.080Z,99890.03
2023-05-07T18:19:18.070Z,99893.31
2023-05-07T18:21:50.305Z,99888.94
2023-05-07T18:24:22.169Z,99893.09
2023-05-07T18:26:54.846Z,99895.34
2023-05-07T18:29:26.734Z,99899.09
2023-05-07T18:31:58.708Z,99914.22
2023-05-07T18:34:30.734Z,99917.63
2023-05-07T18:37:02.736Z,99924.69
2023-05-07T18:39:36.090Z,99928.25
2023-05-07T18:42:08.682Z,99921.91
2023-05-07T18:44:40.444Z,99942.19
2023-05-07T18:47:13.811Z,99940.38
2023-05-07T18:49:45.660Z,99939.31
2023-05-07T18:52:18.068Z,99937.00
2023-05-07T18:54:49.804Z,99940.78
2023-05-07T18:57:21.621Z,99952.72
2023-05-07T18:59:54.881Z,99952.91
2023-05-07T19:02:26.781Z,99955.84
2023-05-07T19:04:59.844Z,99959.22
2023-05-07T19:07:31.781Z,99950.91
2023-05-07T19:10:19.209Z,99959.59
2023-05-07T19:12:55.276Z,99966.69
2023-05-07T19:15:27.220Z,99960.13
2023-05-07T19:17:59.055Z,99962.97
2023-05-07T19:20:30.809Z,99970.59
2023-05-07T19:23:03.254Z,99974.13
2023-05-07T19:25:35.093Z,99984.97
2023-05-07T19:28:07.017Z,99978.31
2023-05-07T19:30:40.521Z,99980.84
2023-05-07T19:33:12.433Z,99994.94
2023-05-07T19:35:44.912Z,99985.28
2023-05-07T19:38:16.641Z,99992.09
2023-05-07T19:40:48.414Z,99997.13
2023-05-07T19:43:20.518Z,100005.03
2023-05-07T19:45:55.198Z,100011.13
2023-05-07T19:48:26.921Z,99995.75
2023-05-07T19:51:01.731Z,100002.56
2023-05-07T19:53:33.770Z,99998.53
2023-05-07T19:56:07.942Z,99996.22
2023-05-07T19:58:39.886Z,100004.41
2023-05-07T20:01:11.956Z,100007.31
2023-05-07T20:03:44.978Z,99999.94
2023-05-07T20:06:16.837Z,100002.34
2023-05-07T20:08:48.928Z,99989.59
2023-05-07T20:11:25.298Z,100000.81
2023-05-07T20:13:57.377Z,100015.94
2023-05-07T20:16:29.335Z,100007.09
2023-05-07T20:19:01.373Z,100013.47
2023-05-07T20:21:36.690Z,100007.78
2023-05-07T20:24:10.305Z,100015.56
2023-05-07T20:26:42.264Z,100016.66
2023-05-07T20:29:14.220Z,100019.84
2023-05-07T20:31:45.960Z,100029.16
2023-05-07T20:34:17.818Z,100026.81
2023-05-07T20:36:49.757Z,100029.69
2023-05-07T20:39:21.641Z,100033.88
2023-05-07T20:41:54.044Z,100048.72
2023-05-07T20:44:25.761Z,100054.09
2023-05-07T20:46:57.474Z,100054.81
2023-05-07T20:49:31.197Z,100058.81
2023-05-07T20:52:03.189Z,100059.66
2023-05-07T20:54:40.116Z,100060.22
2023-05-07T20:57:12.110Z,100069.06
2023-05-07T20:59:43.900Z,100066.03
2023-05-07T21:02:15.727Z,100066.16
2023-05-07T21:04:51.481Z,100060.59
2023-05-07T21:07:23.386Z,100065.75
2023-05-07T21:09:55.324Z,100063.38
2023-05-07T21:12:27.065Z,100056.19
2023-05-07T21:15:01.659Z,100063.78
2023-05-07T21:17:35.214Z,100068.94
2023-05-07T21:20:08.238Z,100065.19
2023-05-07T21:22:40.043Z,100062.28
2023-05-07T21:25:13.280Z,100066.59
2023-05-07T21:27:45.292Z,100072.25
2023-05-07T21:30:17.070Z,100065.19
2023-05-07T21:32:54.483Z,100069.06
2023-05-07T21:35:26.774Z,100069.22
2023-05-07T21:38:02.597Z,100067.38
2023-05-07T21:40:37.252Z,100069.88
2023-05-07T21:43:08.932Z,100066.41
2023-05-07T21:45:41.347Z,100076.00
2023-05-07T21:48:21.649Z,100071.69
2023-05-07T21:51:04.437Z,100074.31
2023-05-07T21:53:38.898Z,100080.28
2023-05-07T21:56:10.732Z,100071.56
2023-05-07T21:58:42.526Z,100076.53
2023-05-07T22:01:14.484Z,100075.56
2023-05-07T22:03:46.388Z,100082.94
2023-05-07T22:06:21.874Z,100083.63
2023-05-07T22:08:53.793Z,100082.09
2023-05-07T22:11:26.115Z,100094.97
2023-05-07T22:13:57.808Z,100087.91
2023-05-07T22:16:29.848Z,100087.06
2023-05-07T22:19:01.635Z,100090.13
2023-05-07T22:21:33.738Z,100093.88
2023-05-07T22:24:07.423Z,100093.88
2023-05-07T22:26:39.807Z,100092.22
2023-05-07T22:29:13.005Z,100085.00
2023-05-07T22:31:44.949Z,100090.00
2023-05-07T22:34:16.710Z,100085.28
2023-05-07T22:36:48.419Z,100081.81
2023-05-07T22:39:20.125Z,100085.56
2023-05-07T22:41:51.898Z,100082.75
2023-05-07T22:44:23.705Z,100090.94
2023-05-07T22:46:56.200Z,100078.03
2023-05-07T22:49:27.916Z,100082.34
2023-05-07T22:51:59.723Z,100077.91
2023-05-07T22:54:31.495Z,100078.31
2023-05-07T22:57:03.579Z,100075.56
2023-05-07T22:59:35.987Z,100078.56
2023-05-07T23:02:08.166Z,100068.19
2023-05-07T23:04:39.951Z,100068.03
2023-05-07T23:07:11.673Z,100083.81
2023-05-07T23:09:45.178Z,100080.66
2023-05-07T23:12:16.957Z,100079.09
2023-05-07T23:14:48.781Z,100083.41
2023-05-07T23:17:20.620Z,100071.38
2023-05-07T23:19:53.967Z,100077.59
2023-05-07T23:22:25.899Z,100080.91
2023-05-07T23:24:57.626Z,100078.00
2023-05-07T23:27:29.366Z,100067.19
2023-05-07T23:30:01.168Z,100067.19
2023-05-07T23:32:33.000Z,100064.13
2023-05-07T23:35:05.232Z,100067.19
2023-05-07T23:37:37.626Z,100071.59
2023-05-07T23:40:09.533Z,100067.72
2023-05-07T23:42:41.271Z,100061.75
2023-05-07T23:45:13.076Z,100056.63
2023-05-07T23:47:44.851Z,100060.78
2023-05-07T23:50:16.788Z,100059.53
2023-05-07T23:52:48.482Z,100062.28
2023-05-07T23:55:20.244Z,100066.94
2023-05-07T23:57:52.665Z,100059.47
